createdAt,value
2023-01-30T00:01:58.781Z,1.30
2023-01-30T00:04:26.771Z,1.30
2023-01-30T00:06:54.770Z,1.30
2023-01-30T00:09:22.813Z,1.30
2023-01-30T00:11:50.783Z,1.30
2023-01-30T00:14:18.752Z,1.30
2023-01-30T00:16:48.116Z,1.30
2023-01-30T00:19:16.108Z,1.30
2023-01-30T00:21:44.117Z,1.40
2023-01-30T00:24:12.170Z,1.30
2023-01-30T00:26:40.324Z,1.40
2023-01-30T00:29:08.460Z,1.40
2023-01-30T00:31:36.494Z,1.40
2023-01-30T00:34:05.880Z,1.40
2023-01-30T00:36:33.925Z,1.40
2023-01-30T00:39:01.939Z,1.30
2023-01-30T00:41:50.227Z,1.30
2023-01-30T00:44:35.664Z,1.30
2023-01-30T00:47:06.321Z,1.30
2023-01-30T00:49:36.246Z,1.30
2023-01-30T00:52:04.689Z,1.30
2023-01-30T00:54:32.993Z,1.20
2023-01-30T00:57:01.027Z,1.20
2023-01-30T00:59:30.077Z,1.30
2023-01-30T01:01:58.099Z,1.30
2023-01-30T01:04:26.342Z,1.30
2023-01-30T01:06:55.743Z,1.30
2023-01-30T01:09:23.784Z,1.30
2023-01-30T01:11:51.955Z,1.30
2023-01-30T01:14:19.967Z,1.30
2023-01-30T01:16:48.277Z,1.30
2023-01-30T01:19:16.540Z,1.30
2023-01-30T01:21:44.577Z,1.30
2023-01-30T01:24:15.807Z,1.30
2023-01-30T01:26:44.943Z,1.30
2023-01-30T01:29:14.851Z,1.30
2023-01-30T01:31:43.377Z,1.20
2023-01-30T01:34:12.168Z,1.20
2023-01-30T01:36:55.579Z,1.20
2023-01-30T01:39:45.384Z,1.30
2023-01-30T01:42:12.420Z,1.30
2023-01-30T01:45:12.099Z,1.30
2023-01-30T01:47:42.234Z,1.30
2023-01-30T01:50:13.824Z,1.40
2023-01-30T01:52:42.640Z,1.30
2023-01-30T01:55:13.540Z,1.30
2023-01-30T01:57:45.676Z,1.30
2023-01-30T02:00:16.419Z,1.30
2023-01-30T02:02:50.452Z,1.40
2023-01-30T02:05:20.829Z,1.30
2023-01-30T02:07:54.706Z,1.40
2023-01-30T02:10:26.657Z,1.40
2023-01-30T02:12:54.714Z,1.40
2023-01-30T02:15:22.781Z,1.40
2023-01-30T02:17:50.920Z,1.40
2023-01-30T02:20:28.888Z,1.40
2023-01-30T02:23:22.792Z,1.40
2023-01-30T02:26:22.871Z,1.40
2023-01-30T02:29:13.895Z,1.40
2023-01-30T02:31:48.851Z,1.40
2023-01-30T02:34:36.035Z,1.40
2023-01-30T02:37:14.476Z,1.30
2023-01-30T02:39:53.687Z,1.30
2023-01-30T02:42:29.067Z,1.30
2023-01-30T02:45:03.533Z,1.30
2023-01-30T02:47:38.927Z,1.40
2023-01-30T02:50:13.013Z,1.30
2023-01-30T02:52:41.356Z,1.30
2023-01-30T02:55:18.779Z,1.40
2023-01-30T02:57:46.939Z,1.40
2023-01-30T03:00:19.630Z,1.40
2023-01-30T03:03:10.929Z,1.40
2023-01-30T03:05:59.053Z,1.50
2023-01-30T03:08:34.336Z,1.40
2023-01-30T03:11:05.385Z,1.40
2023-01-30T03:13:49.406Z,1.50
2023-01-30T03:16:22.400Z,1.50
2023-01-30T03:18:52.015Z,1.50
2023-01-30T03:21:20.672Z,1.50
2023-01-30T03:23:49.013Z,1.50
2023-01-30T03:26:21.357Z,1.50
2023-01-30T03:28:51.433Z,1.50
2023-01-30T03:31:19.642Z,1.50
2023-01-30T03:33:47.772Z,1.50
2023-01-30T03:36:17.360Z,1.40
2023-01-30T03:38:45.432Z,1.40
2023-01-30T03:41:13.629Z,1.50
2023-01-30T03:43:41.659Z,1.50
2023-01-30T03:46:09.819Z,1.50
2023-01-30T03:48:37.865Z,1.50
2023-01-30T03:51:06.433Z,1.50
2023-01-30T03:53:35.905Z,1.50
2023-01-30T03:56:04.073Z,1.50
2023-01-30T03:58:32.133Z,1.40
2023-01-30T04:01:00.251Z,1.50
2023-01-30T04:03:28.317Z,1.50
2023-01-30T04:05:56.413Z,1.50
2023-01-30T04:08:24.492Z,1.50
2023-01-30T04:10:54.125Z,1.50
2023-01-30T04:13:22.268Z,1.50
2023-01-30T04:15:50.343Z,1.60
2023-01-30T04:18:18.398Z,1.60
2023-01-30T04:20:47.102Z,1.60
2023-01-30T04:23:15.218Z,1.50
2023-01-30T04:25:43.297Z,1.50
2023-01-30T04:28:12.719Z,1.60
2023-01-30T04:30:40.903Z,1.60
2023-01-30T04:33:09.032Z,1.60
2023-01-30T04:35:37.064Z,1.70
2023-01-30T04:38:05.121Z,1.70
2023-01-30T04:40:33.822Z,1.80
2023-01-30T04:43:01.940Z,1.80
2023-01-30T04:45:31.332Z,1.80
2023-01-30T04:47:59.417Z,1.80
2023-01-30T04:50:27.418Z,1.90
2023-01-30T04:52:55.436Z,1.90
2023-01-30T04:55:23.499Z,2.00
2023-01-30T04:57:51.577Z,1.90
2023-01-30T05:00:20.090Z,2.00
2023-01-30T05:02:50.091Z,2.00
2023-01-30T05:05:18.597Z,2.00
2023-01-30T05:07:46.810Z,1.90
2023-01-30T05:10:14.911Z,1.90
2023-01-30T05:12:42.960Z,2.00
2023-01-30T05:15:11.561Z,2.00
2023-01-30T05:17:39.710Z,2.00
2023-01-30T05:20:11.198Z,1.90
2023-01-30T05:22:39.360Z,2.00
2023-01-30T05:25:08.327Z,2.00
2023-01-30T05:27:36.396Z,2.00
2023-01-30T05:30:05.161Z,2.00
2023-01-30T05:32:33.243Z,2.10
2023-01-30T05:35:01.505Z,2.10
2023-01-30T05:37:30.887Z,2.20
2023-01-30T05:39:58.913Z,2.20
2023-01-30T05:42:26.986Z,2.20
2023-01-30T05:44:54.987Z,2.20
2023-01-30T05:47:23.029Z,2.20
2023-01-30T05:49:51.066Z,2.20
2023-01-30T05:52:19.118Z,2.30
2023-01-30T05:54:48.581Z,2.30
2023-01-30T05:57:16.654Z,2.30
2023-01-30T05:59:44.699Z,2.30
2023-01-30T06:02:12.749Z,2.30
2023-01-30T06:04:40.784Z,2.30
2023-01-30T06:07:08.837Z,2.30
2023-01-30T06:09:36.919Z,2.40
2023-01-30T06:12:08.214Z,2.30
2023-01-30T06:14:36.252Z,2.30
2023-01-30T06:17:04.326Z,2.30
2023-01-30T06:19:32.370Z,2.30
2023-01-30T06:22:00.412Z,2.30
2023-01-30T06:24:28.460Z,2.30
2023-01-30T06:26:56.575Z,2.30
2023-01-30T06:29:26.130Z,2.40
2023-01-30T06:31:54.355Z,2.40
2023-01-30T06:34:22.567Z,2.40
2023-01-30T06:36:50.600Z,2.40
2023-01-30T06:39:18.652Z,2.40
2023-01-30T06:41:46.713Z,2.40
2023-01-30T06:44:14.785Z,2.40
2023-01-30T06:46:44.200Z,2.40
2023-01-30T06:49:12.441Z,2.40
2023-01-30T06:51:40.505Z,2.40
2023-01-30T06:54:08.546Z,2.40
2023-01-30T06:56:36.564Z,2.40
2023-01-30T06:59:04.615Z,2.40
2023-01-30T07:01:33.579Z,2.40
2023-01-30T07:04:03.087Z,2.40
2023-01-30T07:06:31.125Z,2.30
2023-01-30T07:08:59.387Z,2.30
2023-01-30T07:11:27.508Z,2.30
2023-01-30T07:13:55.651Z,2.30
2023-01-30T07:16:29.104Z,2.30
2023-01-30T07:18:58.689Z,2.40
2023-01-30T07:21:29.182Z,2.30
2023-01-30T07:23:57.794Z,2.30
2023-01-30T07:26:26.124Z,2.30
2023-01-30T07:28:54.169Z,2.30
2023-01-30T07:31:22.205Z,2.30
2023-01-30T07:33:50.224Z,2.30
2023-01-30T07:36:18.305Z,2.30
2023-01-30T07:38:49.373Z,2.30
2023-01-30T07:41:17.388Z,2.30
2023-01-30T07:43:45.367Z,2.30
2023-01-30T07:46:13.345Z,2.30
2023-01-30T07:48:41.350Z,2.30
2023-01-30T07:51:09.318Z,2.30
2023-01-30T07:53:37.309Z,2.30
2023-01-30T07:56:09.850Z,2.30
2023-01-30T07:58:38.102Z,2.30
2023-01-30T08:01:06.232Z,2.30
2023-01-30T08:03:34.268Z,2.40
2023-01-30T08:06:02.222Z,2.40
2023-01-30T08:08:30.375Z,2.40
2023-01-30T08:10:58.365Z,2.40
2023-01-30T08:13:27.829Z,2.50
2023-01-30T08:15:55.835Z,2.50
2023-01-30T08:18:23.847Z,2.50
2023-01-30T08:20:51.819Z,2.50
2023-01-30T08:23:19.844Z,2.60
2023-01-30T08:25:47.822Z,2.60
2023-01-30T08:28:15.842Z,2.70
2023-01-30T08:30:45.346Z,2.80
2023-01-30T08:33:13.355Z,2.80
2023-01-30T08:35:41.509Z,2.80
2023-01-30T08:38:09.947Z,2.90
2023-01-30T08:40:38.101Z,2.90
2023-01-30T08:43:06.424Z,3.00
2023-01-30T08:45:34.502Z,3.00
2023-01-30T08:48:06.321Z,3.00
2023-01-30T08:50:34.928Z,3.10
2023-01-30T08:53:06.686Z,3.10
2023-01-30T08:55:34.927Z,3.20
2023-01-30T08:58:02.938Z,3.20
2023-01-30T09:00:31.213Z,3.20
2023-01-30T09:03:00.660Z,3.20
2023-01-30T09:05:30.879Z,3.30
2023-01-30T09:07:58.847Z,3.40
2023-01-30T09:10:26.903Z,3.50
2023-01-30T09:12:54.887Z,3.50
2023-01-30T09:15:22.854Z,3.50
2023-01-30T09:17:52.525Z,3.60
2023-01-30T09:20:21.093Z,3.60
2023-01-30T09:22:50.545Z,3.70
2023-01-30T09:25:18.705Z,3.80
2023-01-30T09:27:50.388Z,3.80
2023-01-30T09:30:19.626Z,3.80
2023-01-30T09:32:47.868Z,3.90
2023-01-30T09:35:16.197Z,3.90
2023-01-30T09:37:55.344Z,4.00
2023-01-30T09:40:27.762Z,4.00
2023-01-30T09:43:27.440Z,4.00
2023-01-30T09:46:05.269Z,4.10
2023-01-30T09:48:42.713Z,4.10
2023-01-30T09:51:27.311Z,4.10
2023-01-30T09:54:10.941Z,4.10
2023-01-30T09:56:39.080Z,4.10
2023-01-30T09:59:07.893Z,4.10
2023-01-30T10:01:49.641Z,4.00
2023-01-30T10:04:24.651Z,4.00
2023-01-30T10:07:00.528Z,4.00
2023-01-30T10:09:40.309Z,4.00
2023-01-30T10:12:27.844Z,4.00
2023-01-30T10:15:16.883Z,4.00
2023-01-30T10:17:59.456Z,4.00
2023-01-30T10:20:36.264Z,4.00
2023-01-30T10:23:17.044Z,4.00
2023-01-30T10:25:49.419Z,4.00
2023-01-30T10:28:22.813Z,4.00
2023-01-30T10:30:56.280Z,3.90
2023-01-30T10:33:28.639Z,3.90
2023-01-30T10:36:02.731Z,3.90
2023-01-30T10:38:37.460Z,3.90
2023-01-30T10:41:14.407Z,4.00
2023-01-30T10:43:47.979Z,4.00
2023-01-30T10:46:32.817Z,4.00
2023-01-30T10:49:03.896Z,4.00
2023-01-30T10:51:44.159Z,4.10
2023-01-30T10:54:19.765Z,4.10
2023-01-30T10:56:57.203Z,4.20
2023-01-30T10:59:31.864Z,4.20
2023-01-30T11:02:03.811Z,4.30
2023-01-30T11:04:37.388Z,4.40
2023-01-30T11:07:05.641Z,4.40
2023-01-30T11:09:41.595Z,4.40
2023-01-30T11:12:11.333Z,4.50
2023-01-30T11:14:54.959Z,4.50
2023-01-30T11:17:30.022Z,4.60
2023-01-30T11:20:03.222Z,4.60
2023-01-30T11:22:34.309Z,4.60
2023-01-30T11:25:04.469Z,4.60
2023-01-30T11:27:35.031Z,4.60
2023-01-30T11:30:16.391Z,4.60
2023-01-30T11:32:47.386Z,4.60
2023-01-30T11:35:27.242Z,4.60
2023-01-30T11:37:55.581Z,4.60
2023-01-30T11:40:29.598Z,4.60
2023-01-30T11:43:05.773Z,4.70
2023-01-30T11:45:39.633Z,4.70
2023-01-30T11:48:31.662Z,4.90
2023-01-30T11:51:07.071Z,4.90
2023-01-30T11:53:39.093Z,4.90
2023-01-30T11:56:13.032Z,5.00
2023-01-30T11:58:46.293Z,5.00
2023-01-30T12:01:16.215Z,5.10
2023-01-30T12:03:49.589Z,5.20
2023-01-30T12:06:25.919Z,5.20
2023-01-30T12:08:56.266Z,5.20
2023-01-30T12:11:42.249Z,5.30
2023-01-30T12:14:21.352Z,5.30
2023-01-30T12:16:57.135Z,5.30
2023-01-30T12:19:35.057Z,5.40
2023-01-30T12:22:11.779Z,5.40
2023-01-30T12:24:44.573Z,5.50
2023-01-30T12:27:18.733Z,5.60
2023-01-30T12:29:58.443Z,5.60
2023-01-30T12:32:28.957Z,5.70
2023-01-30T12:34:57.371Z,5.70
2023-01-30T12:37:41.432Z,5.70
2023-01-30T12:40:22.168Z,5.80
2023-01-30T12:43:04.535Z,5.70
2023-01-30T12:45:37.320Z,5.70
2023-01-30T12:48:35.667Z,5.70
2023-01-30T12:51:19.289Z,5.60
2023-01-30T12:53:59.387Z,5.50
2023-01-30T12:56:46.928Z,5.50
2023-01-30T12:59:21.457Z,5.50
2023-01-30T13:02:08.909Z,5.50
2023-01-30T13:04:56.265Z,5.60
2023-01-30T13:07:39.704Z,5.60
2023-01-30T13:10:16.418Z,5.60
2023-01-30T13:12:51.822Z,5.50
2023-01-30T13:15:26.386Z,5.50
2023-01-30T13:18:06.667Z,5.40
2023-01-30T13:20:48.641Z,5.40
2023-01-30T13:23:19.555Z,5.30
2023-01-30T13:25:56.245Z,5.30
2023-01-30T13:28:27.471Z,5.20
2023-01-30T13:30:57.173Z,5.20
2023-01-30T13:33:31.897Z,5.30
2023-01-30T13:36:11.262Z,5.30
2023-01-30T13:38:49.272Z,5.30
2023-01-30T13:41:19.697Z,5.40
2023-01-30T13:43:53.122Z,5.40
2023-01-30T13:46:25.505Z,5.40
2023-01-30T13:49:07.553Z,5.40
2023-01-30T13:51:49.108Z,5.40
2023-01-30T13:54:40.250Z,5.40
2023-01-30T13:57:17.643Z,5.50
2023-01-30T14:00:07.449Z,5.50
2023-01-30T14:02:35.505Z,5.50
2023-01-30T14:05:05.893Z,5.60
2023-01-30T14:07:40.149Z,5.60
2023-01-30T14:10:20.344Z,5.70
2023-01-30T14:12:50.449Z,5.70
2023-01-30T14:15:29.007Z,5.70
2023-01-30T14:18:07.420Z,5.70
2023-01-30T14:20:38.545Z,5.70
2023-01-30T14:23:20.139Z,5.70
2023-01-30T14:25:50.598Z,5.70
2023-01-30T14:28:48.349Z,5.60
2023-01-30T14:31:55.674Z,5.60
2023-01-30T14:34:44.523Z,5.60
2023-01-30T14:37:31.044Z,5.70
2023-01-30T14:39:59.814Z,5.70
2023-01-30T14:42:29.954Z,5.70
2023-01-30T14:45:03.615Z,5.70
2023-01-30T14:47:42.208Z,5.70
2023-01-30T14:50:21.760Z,5.60
2023-01-30T14:52:55.822Z,5.60
2023-01-30T14:55:29.620Z,5.70
2023-01-30T14:58:01.504Z,5.70
2023-01-30T15:00:32.475Z,5.70
2023-01-30T15:03:03.378Z,5.70
2023-01-30T15:05:37.116Z,5.80
2023-01-30T15:08:10.285Z,5.80
2023-01-30T15:11:04.300Z,5.90
2023-01-30T15:13:47.434Z,5.90
2023-01-30T15:16:42.014Z,5.90
2023-01-30T15:19:32.800Z,5.80
2023-01-30T15:22:12.600Z,5.80
2023-01-30T15:25:18.687Z,5.70
2023-01-30T15:28:00.743Z,5.70
2023-01-30T15:30:44.576Z,5.70
2023-01-30T15:33:29.532Z,5.60
2023-01-30T15:35:59.023Z,5.60
2023-01-30T15:38:30.442Z,5.60
2023-01-30T15:41:02.739Z,5.60
2023-01-30T15:43:52.068Z,5.60
2023-01-30T15:46:27.383Z,5.50
2023-01-30T15:49:24.566Z,5.50
2023-01-30T15:51:53.708Z,5.50
2023-01-30T15:54:24.882Z,5.40
2023-01-30T15:56:57.502Z,5.40
2023-01-30T15:59:32.771Z,5.40
2023-01-30T16:02:03.259Z,5.40
2023-01-30T16:04:32.080Z,5.40
2023-01-30T16:07:00.970Z,5.40
2023-01-30T16:09:29.110Z,5.40
2023-01-30T16:11:58.574Z,5.40
2023-01-30T16:14:26.638Z,5.40
2023-01-30T16:16:59.054Z,5.40
2023-01-30T16:19:29.858Z,5.40
2023-01-30T16:22:01.974Z,5.40
2023-01-30T16:24:32.753Z,5.30
2023-01-30T16:27:06.289Z,5.30
2023-01-30T16:29:45.046Z,5.30
2023-01-30T16:32:15.426Z,5.30
2023-01-30T16:34:43.487Z,5.30
2023-01-30T16:37:27.580Z,5.30
2023-01-30T16:40:04.871Z,5.30
2023-01-30T16:42:34.483Z,5.20
2023-01-30T16:45:35.139Z,5.20
2023-01-30T16:48:25.525Z,5.20
2023-01-30T16:51:20.639Z,5.30
2023-01-30T16:53:53.882Z,5.20
2023-01-30T16:56:22.126Z,5.20
2023-01-30T16:58:55.173Z,5.20
2023-01-30T17:01:24.660Z,5.20
2023-01-30T17:04:01.630Z,5.20
2023-01-30T17:06:37.245Z,5.20
2023-01-30T17:09:07.634Z,5.20
2023-01-30T17:11:37.768Z,5.30
2023-01-30T17:14:20.585Z,5.20
2023-01-30T17:16:49.059Z,5.20
2023-01-30T17:19:17.081Z,5.20
2023-01-30T17:21:49.319Z,5.10
2023-01-30T17:24:19.705Z,5.00
2023-01-30T17:26:49.880Z,5.00
2023-01-30T17:29:41.000Z,4.90
2023-01-30T17:32:12.150Z,4.80
2023-01-30T17:34:41.405Z,4.80
2023-01-30T17:37:15.934Z,4.80
2023-01-30T17:39:43.977Z,4.80
2023-01-30T17:42:12.734Z,4.70
2023-01-30T17:44:42.518Z,4.70
2023-01-30T17:47:12.168Z,4.70
2023-01-30T17:49:40.483Z,4.60
2023-01-30T17:52:08.743Z,4.60
2023-01-30T17:54:36.780Z,4.60
2023-01-30T17:57:09.673Z,4.60
2023-01-30T17:59:37.738Z,4.60
2023-01-30T18:02:10.345Z,4.70
2023-01-30T18:04:40.039Z,4.70
2023-01-30T18:07:12.551Z,4.60
2023-01-30T18:09:40.652Z,4.60
2023-01-30T18:12:08.790Z,4.70
2023-01-30T18:14:36.813Z,4.70
2023-01-30T18:17:06.472Z,4.70
2023-01-30T18:19:34.591Z,4.70
2023-01-30T18:22:02.614Z,4.70
2023-01-30T18:24:30.808Z,4.80
2023-01-30T18:27:01.495Z,4.80
2023-01-30T18:29:30.054Z,4.80
2023-01-30T18:32:03.540Z,4.80
2023-01-30T18:34:33.744Z,4.80
2023-01-30T18:37:01.828Z,4.70
2023-01-30T18:39:31.891Z,4.80
2023-01-30T18:42:02.062Z,4.80
2023-01-30T18:44:30.185Z,4.80
2023-01-30T18:46:58.345Z,4.80
2023-01-30T18:49:26.632Z,4.80
2023-01-30T18:51:56.098Z,4.80
2023-01-30T18:54:24.189Z,4.90
2023-01-30T18:56:52.298Z,4.90
2023-01-30T18:59:20.413Z,4.90
2023-01-30T19:01:48.525Z,5.00
2023-01-30T19:04:16.663Z,5.00
2023-01-30T19:06:45.121Z,5.00
2023-01-30T19:09:16.361Z,5.10
2023-01-30T19:12:02.072Z,5.10
2023-01-30T19:14:30.215Z,5.10
2023-01-30T19:16:58.288Z,5.10
2023-01-30T19:19:27.246Z,5.20
2023-01-30T19:21:55.314Z,5.20
2023-01-30T19:24:25.099Z,5.20
2023-01-30T19:26:53.161Z,5.20
2023-01-30T19:29:21.346Z,5.30
2023-01-30T19:31:49.443Z,5.30
2023-01-30T19:34:17.684Z,5.30
2023-01-30T19:36:45.762Z,5.30
2023-01-30T19:39:13.699Z,5.30
2023-01-30T19:41:43.330Z,5.40
2023-01-30T19:44:12.859Z,5.50
2023-01-30T19:46:41.674Z,5.50
2023-01-30T19:49:11.550Z,5.60
2023-01-30T19:51:40.609Z,5.60
2023-01-30T19:54:10.852Z,5.50
2023-01-30T19:56:41.830Z,5.60
2023-01-30T19:59:13.953Z,5.60
2023-01-30T20:01:41.974Z,5.60
2023-01-30T20:04:09.972Z,5.60
2023-01-30T20:06:38.484Z,5.60
2023-01-30T20:09:09.505Z,5.60
2023-01-30T20:11:39.054Z,5.60
2023-01-30T20:14:07.354Z,5.70
2023-01-30T20:16:37.437Z,5.70
2023-01-30T20:19:08.153Z,5.70
2023-01-30T20:21:37.126Z,5.60
2023-01-30T20:24:06.374Z,5.70
2023-01-30T20:26:36.384Z,5.70
2023-01-30T20:29:05.241Z,5.70
2023-01-30T20:31:34.663Z,5.70
2023-01-30T20:34:06.176Z,5.70
2023-01-30T20:36:34.794Z,5.70
2023-01-30T20:39:04.348Z,5.70
2023-01-30T20:41:35.590Z,5.70
2023-01-30T20:44:03.800Z,5.70
2023-01-30T20:46:35.496Z,5.70
2023-01-30T20:49:04.872Z,5.70
2023-01-30T20:51:34.846Z,5.70
2023-01-30T20:54:05.409Z,5.70
2023-01-30T20:56:35.094Z,5.70
2023-01-30T20:59:04.682Z,5.70
2023-01-30T21:01:33.649Z,5.60
2023-01-30T21:04:08.321Z,5.60
2023-01-30T21:06:43.928Z,5.60
2023-01-30T21:09:15.168Z,5.50
2023-01-30T21:11:43.186Z,5.50
2023-01-30T21:14:11.173Z,5.50
2023-01-30T21:16:39.703Z,5.40
2023-01-30T21:19:15.110Z,5.40
2023-01-30T21:21:50.408Z,5.40
2023-01-30T21:24:20.997Z,5.30
2023-01-30T21:26:49.606Z,5.30
2023-01-30T21:29:20.919Z,5.30
2023-01-30T21:31:49.183Z,5.20
2023-01-30T21:34:18.622Z,5.20
2023-01-30T21:37:06.990Z,5.20
2023-01-30T21:39:52.796Z,5.20
2023-01-30T21:42:38.343Z,5.20
2023-01-30T21:45:07.533Z,5.20
2023-01-30T21:47:35.802Z,5.20
2023-01-30T21:50:06.013Z,5.20
2023-01-30T21:52:34.087Z,5.20
2023-01-30T21:55:02.116Z,5.20
2023-01-30T21:57:30.181Z,5.30
2023-01-30T21:59:58.187Z,5.30
2023-01-30T22:02:26.212Z,5.30
2023-01-30T22:04:54.809Z,5.30
2023-01-30T22:07:24.235Z,5.30
2023-01-30T22:09:52.250Z,5.30
2023-01-30T22:12:20.316Z,5.30
2023-01-30T22:14:48.278Z,5.30
2023-01-30T22:17:16.239Z,5.30
2023-01-30T22:19:44.238Z,5.30
2023-01-30T22:22:12.306Z,5.20
2023-01-30T22:24:41.655Z,5.20
2023-01-30T22:27:09.627Z,5.20
2023-01-30T22:29:37.617Z,5.10
2023-01-30T22:32:06.260Z,5.10
2023-01-30T22:34:35.965Z,5.00
2023-01-30T22:37:04.111Z,4.90
2023-01-30T22:39:32.059Z,4.90
2023-01-30T22:42:01.428Z,4.80
2023-01-30T22:44:29.411Z,4.90
2023-01-30T22:46:57.488Z,4.80
2023-01-30T22:49:25.615Z,4.80
2023-01-30T22:51:53.612Z,4.70
2023-01-30T22:54:21.611Z,4.70
2023-01-30T22:56:53.333Z,4.70
2023-01-30T22:59:22.876Z,4.70
2023-01-30T23:01:51.955Z,4.60
2023-01-30T23:04:21.580Z,4.60
2023-01-30T23:06:51.387Z,4.60
2023-01-30T23:09:22.132Z,4.50
2023-01-30T23:12:06.394Z,4.50
2023-01-30T23:14:36.890Z,4.50
2023-01-30T23:17:26.322Z,4.40
2023-01-30T23:19:53.418Z,4.40
2023-01-30T23:22:21.714Z,4.40
2023-01-30T23:24:51.056Z,4.30
2023-01-30T23:27:19.245Z,4.30
2023-01-30T23:29:48.753Z,4.30
2023-01-30T23:32:19.185Z,4.30
2023-01-30T23:34:47.369Z,4.30
2023-01-30T23:37:15.367Z,4.30
2023-01-30T23:39:43.345Z,4.30
2023-01-30T23:42:11.410Z,4.30
2023-01-30T23:44:40.007Z,4.30
2023-01-30T23:47:09.481Z,4.30
2023-01-30T23:49:37.834Z,4.30
2023-01-30T23:52:06.118Z,4.30
2023-01-30T23:54:34.095Z,4.30
2023-01-30T23:57:02.056Z,4.20
2023-01-30T23:59:30.078Z,4.20
